createdAt,value
2018-06-21T00:02:02.938Z,16.43
2018-06-21T00:04:29.914Z,15.70
2018-06-21T00:06:56.892Z,13.40
2018-06-21T00:09:23.983Z,15.20
2018-06-21T00:11:50.918Z,15.73
2018-06-21T00:14:17.858Z,14.43
2018-06-21T00:16:44.796Z,14.23
2018-06-21T00:19:11.852Z,17.40
2018-06-21T00:21:38.861Z,15.77
2018-06-21T00:24:05.865Z,16.73
2018-06-21T00:26:32.857Z,15.47
2018-06-21T00:28:59.817Z,16.03
2018-06-21T00:31:26.754Z,15.73
2018-06-21T00:33:53.738Z,15.03
2018-06-21T00:36:20.670Z,14.00
2018-06-21T00:38:47.646Z,14.43
2018-06-21T00:41:14.579Z,14.57
2018-06-21T00:43:41.525Z,15.43
2018-06-21T00:46:08.609Z,16.20
2018-06-21T00:48:35.556Z,14.70
2018-06-21T00:51:02.507Z,16.03
2018-06-21T00:53:29.443Z,15.97
2018-06-21T00:56:08.197Z,14.53
2018-06-21T00:58:35.136Z,15.30
2018-06-21T01:01:02.102Z,16.30
2018-06-21T01:03:29.123Z,16.50
2018-06-21T01:05:56.069Z,17.07
2018-06-21T01:08:23.140Z,16.60
2018-06-21T01:10:50.108Z,17.20
2018-06-21T01:13:17.058Z,16.73
2018-06-21T01:15:44.033Z,15.50
2018-06-21T01:18:10.987Z,16.90
2018-06-21T01:20:37.953Z,16.03
2018-06-21T01:23:04.893Z,16.40
2018-06-21T01:25:31.877Z,15.37
2018-06-21T01:27:59.021Z,15.53
2018-06-21T01:30:26.033Z,16.07
2018-06-21T01:32:53.005Z,15.70
2018-06-21T01:35:19.947Z,15.70
2018-06-21T01:37:47.317Z,15.50
2018-06-21T01:40:14.317Z,15.00
2018-06-21T01:42:41.321Z,15.03
2018-06-21T01:45:08.269Z,14.23
2018-06-21T01:47:35.204Z,15.10
2018-06-21T01:50:02.689Z,13.87
2018-06-21T01:52:29.681Z,13.90
2018-06-21T01:54:56.617Z,14.63
2018-06-21T01:57:23.565Z,14.63
2018-06-21T01:59:50.537Z,14.90
2018-06-21T02:02:17.472Z,16.33
2018-06-21T02:04:44.458Z,16.27
2018-06-21T02:07:11.406Z,16.23
2018-06-21T02:09:38.361Z,16.40
2018-06-21T02:12:05.346Z,17.33
2018-06-21T02:14:32.324Z,16.30
2018-06-21T02:16:59.267Z,16.50
2018-06-21T02:19:26.208Z,16.17
2018-06-21T02:21:53.160Z,16.97
2018-06-21T02:24:20.100Z,15.90
2018-06-21T02:26:47.032Z,17.10
2018-06-21T02:29:14.001Z,16.37
2018-06-21T02:31:40.945Z,16.07
2018-06-21T02:34:08.130Z,16.60
2018-06-21T02:36:35.072Z,16.93
2018-06-21T02:39:03.900Z,15.50
2018-06-21T02:41:30.821Z,16.47
2018-06-21T02:43:57.745Z,15.20
2018-06-21T02:46:24.696Z,16.40
2018-06-21T02:48:51.642Z,14.30
2018-06-21T02:51:18.645Z,14.63
2018-06-21T02:53:45.606Z,14.13
2018-06-21T02:56:12.662Z,15.67
2018-06-21T02:58:39.641Z,14.53
2018-06-21T03:01:06.644Z,14.33
2018-06-21T03:03:33.593Z,14.27
2018-06-21T03:06:00.524Z,14.20
2018-06-21T03:08:27.449Z,14.30
2018-06-21T03:10:54.373Z,16.10
2018-06-21T03:13:21.304Z,15.90
2018-06-21T03:15:48.222Z,16.70
2018-06-21T03:18:15.173Z,16.50
2018-06-21T03:20:42.116Z,15.57
2018-06-21T03:23:09.037Z,17.43
2018-06-21T03:25:35.982Z,16.67
2018-06-21T03:28:02.900Z,17.33
2018-06-21T03:30:29.836Z,15.50
2018-06-21T03:32:56.789Z,17.43
2018-06-21T03:35:23.746Z,15.70
2018-06-21T03:37:50.721Z,15.43
2018-06-21T03:40:17.646Z,16.20
2018-06-21T03:42:44.619Z,15.83
2018-06-21T03:45:11.540Z,17.10
2018-06-21T03:47:38.456Z,15.20
2018-06-21T03:50:05.440Z,14.23
2018-06-21T03:52:32.392Z,14.97
2018-06-21T03:54:59.338Z,15.00
2018-06-21T03:57:26.271Z,14.23
2018-06-21T03:59:53.209Z,13.00
2018-06-21T04:02:20.173Z,13.40
2018-06-21T04:04:47.250Z,15.30
2018-06-21T04:07:14.209Z,14.07
2018-06-21T04:09:41.153Z,13.83
2018-06-21T04:12:08.116Z,14.03
2018-06-21T04:14:35.075Z,13.80
2018-06-21T04:17:02.010Z,13.37
2018-06-21T04:19:28.948Z,13.53
2018-06-21T04:21:55.884Z,13.43
2018-06-21T04:24:22.873Z,13.23
2018-06-21T04:26:49.801Z,13.50
2018-06-21T04:29:16.735Z,14.23
2018-06-21T04:31:43.637Z,13.57
2018-06-21T04:34:11.469Z,13.30
2018-06-21T04:36:38.425Z,13.83
2018-06-21T04:39:05.986Z,13.70
2018-06-21T04:41:33.474Z,13.20
2018-06-21T04:44:00.396Z,12.83
2018-06-21T04:46:27.327Z,15.67
2018-06-21T04:48:54.249Z,13.03
2018-06-21T04:51:21.196Z,12.20
2018-06-21T04:53:48.126Z,12.17
2018-06-21T04:56:15.036Z,12.20
2018-06-21T04:58:42.004Z,12.57
2018-06-21T05:01:08.979Z,12.73
2018-06-21T05:03:35.900Z,11.10
2018-06-21T05:06:02.842Z,11.73
2018-06-21T05:08:29.768Z,11.93
2018-06-21T05:10:56.888Z,11.53
2018-06-21T05:13:23.845Z,11.37
2018-06-21T05:15:50.810Z,11.17
2018-06-21T05:18:17.740Z,10.90
2018-06-21T05:20:44.684Z,11.13
2018-06-21T05:23:11.616Z,11.13
2018-06-21T05:25:38.568Z,10.50
2018-06-21T05:28:05.793Z,10.17
2018-06-21T05:30:32.708Z,10.87
2018-06-21T05:32:59.664Z,11.60
2018-06-21T05:35:26.615Z,10.60
2018-06-21T05:37:53.550Z,10.50
2018-06-21T05:40:30.053Z,9.30
2018-06-21T05:42:57.151Z,10.50
2018-06-21T05:45:24.119Z,11.30
2018-06-21T05:47:51.285Z,10.67
2018-06-21T05:50:18.283Z,10.90
2018-06-21T05:52:46.140Z,10.70
2018-06-21T05:55:13.121Z,9.97
2018-06-21T05:57:40.058Z,10.43
2018-06-21T06:00:06.995Z,11.70
2018-06-21T06:02:33.963Z,11.87
2018-06-21T06:05:00.902Z,9.80
2018-06-21T06:07:27.848Z,9.30
2018-06-21T06:09:54.797Z,10.27
2018-06-21T06:12:21.724Z,9.67
2018-06-21T06:14:48.662Z,13.80
2018-06-21T06:17:15.616Z,11.40
2018-06-21T06:19:42.547Z,10.67
2018-06-21T06:22:09.477Z,9.27
2018-06-21T06:24:36.421Z,10.57
2018-06-21T06:27:03.361Z,8.80
2018-06-21T06:29:30.329Z,9.07
2018-06-21T06:31:57.282Z,10.00
2018-06-21T06:34:24.211Z,9.70
2018-06-21T06:36:51.189Z,10.20
2018-06-21T06:39:19.442Z,10.53
2018-06-21T06:41:48.808Z,10.27
2018-06-21T06:44:15.992Z,8.57
2018-06-21T06:46:43.021Z,8.50
2018-06-21T06:49:10.362Z,8.10
2018-06-21T06:51:37.900Z,23.33
2018-06-21T06:54:05.243Z,8.97
2018-06-21T06:56:32.185Z,7.90
2018-06-21T06:58:59.591Z,8.40
2018-06-21T07:01:26.581Z,8.10
2018-06-21T07:03:53.557Z,7.80
2018-06-21T07:06:20.501Z,7.90
2018-06-21T07:08:47.460Z,7.80
2018-06-21T07:11:14.662Z,8.20
2018-06-21T07:13:41.646Z,7.80
2018-06-21T07:16:08.642Z,8.73
2018-06-21T07:18:35.603Z,7.80
2018-06-21T07:21:02.544Z,8.00
2018-06-21T07:23:29.513Z,7.80
2018-06-21T07:25:56.474Z,7.70
2018-06-21T07:28:23.613Z,6.70
2018-06-21T07:30:50.584Z,7.90
2018-06-21T07:33:17.528Z,6.93
2018-06-21T07:35:44.477Z,8.37
2018-06-21T07:38:11.465Z,8.10
2018-06-21T07:40:38.531Z,6.70
2018-06-21T07:43:05.490Z,7.03
2018-06-21T07:45:32.571Z,8.00
2018-06-21T07:47:59.608Z,6.50
2018-06-21T07:50:26.654Z,6.23
2018-06-21T07:52:53.683Z,6.50
2018-06-21T07:55:20.721Z,6.00
2018-06-21T07:57:47.747Z,6.17
2018-06-21T08:00:14.809Z,5.73
2018-06-21T08:02:41.973Z,6.00
2018-06-21T08:05:09.069Z,6.17
2018-06-21T08:07:36.137Z,6.00
2018-06-21T08:10:03.364Z,5.73
2018-06-21T08:12:30.400Z,5.97
2018-06-21T08:14:57.647Z,5.60
2018-06-21T08:17:24.673Z,5.30
2018-06-21T08:19:51.704Z,5.33
2018-06-21T08:22:18.738Z,5.70
2018-06-21T08:24:45.778Z,5.53
2018-06-21T08:27:12.815Z,6.30
2018-06-21T08:29:39.895Z,5.80
2018-06-21T08:32:06.995Z,5.30
2018-06-21T08:34:33.980Z,5.57
2018-06-21T08:37:01.043Z,6.67
2018-06-21T08:39:28.109Z,5.40
2018-06-21T08:41:55.162Z,5.40
2018-06-21T08:44:22.236Z,7.33
2018-06-21T08:46:49.259Z,6.10
2018-06-21T08:49:16.307Z,5.70
2018-06-21T08:51:43.368Z,5.97
2018-06-21T08:54:10.394Z,5.67
2018-06-21T08:56:37.432Z,6.30
2018-06-21T08:59:04.500Z,6.60
2018-06-21T09:01:31.543Z,6.83
2018-06-21T09:03:58.575Z,5.30
2018-06-21T09:06:25.973Z,6.27
2018-06-21T09:08:52.995Z,5.80
2018-06-21T09:11:20.102Z,5.67
2018-06-21T09:13:47.124Z,5.30
2018-06-21T09:16:14.164Z,5.13
2018-06-21T09:18:41.358Z,5.17
2018-06-21T09:21:08.420Z,5.00
2018-06-21T09:23:35.491Z,5.90
2018-06-21T09:26:02.822Z,5.40
2018-06-21T09:28:29.984Z,5.40
2018-06-21T09:30:57.066Z,6.10
2018-06-21T09:33:24.098Z,4.90
2018-06-21T09:35:51.180Z,4.60
2018-06-21T09:38:24.128Z,5.10
2018-06-21T09:40:57.098Z,4.67
2018-06-21T09:43:29.927Z,4.10
2018-06-21T09:46:02.861Z,4.10
2018-06-21T09:48:31.032Z,4.50
2018-06-21T09:50:59.000Z,4.67
2018-06-21T09:53:26.771Z,4.57
2018-06-21T09:55:53.835Z,5.20
2018-06-21T09:58:20.904Z,4.80
2018-06-21T10:00:53.821Z,4.37
2018-06-21T10:03:20.859Z,5.60
2018-06-21T10:05:47.918Z,4.80
2018-06-21T10:08:14.994Z,4.23
2018-06-21T10:10:42.262Z,4.73
2018-06-21T10:13:09.326Z,4.33
2018-06-21T10:15:36.411Z,4.47
2018-06-21T10:18:03.982Z,4.00
2018-06-21T10:20:31.131Z,3.93
2018-06-21T10:22:58.140Z,4.23
2018-06-21T10:25:25.350Z,4.47
2018-06-21T10:27:52.435Z,4.37
2018-06-21T10:30:19.653Z,4.60
2018-06-21T10:32:46.734Z,3.40
2018-06-21T10:35:13.787Z,4.80
2018-06-21T10:37:40.831Z,4.30
2018-06-21T10:40:08.744Z,4.30
2018-06-21T10:42:35.851Z,7.50
2018-06-21T10:45:03.302Z,6.10
2018-06-21T10:47:30.424Z,6.43
2018-06-21T10:49:57.500Z,5.30
2018-06-21T10:52:24.539Z,3.87
2018-06-21T10:54:51.533Z,3.67
2018-06-21T10:57:18.640Z,2.80
2018-06-21T10:59:46.344Z,2.30
2018-06-21T11:02:13.401Z,3.00
2018-06-21T11:04:40.493Z,3.63
2018-06-21T11:07:07.460Z,3.53
2018-06-21T11:09:34.482Z,2.80
2018-06-21T11:12:01.468Z,3.27
2018-06-21T11:14:28.449Z,2.70
2018-06-21T11:16:55.834Z,1.97
2018-06-21T11:19:22.962Z,2.00
2018-06-21T11:21:50.004Z,1.80
2018-06-21T11:24:17.071Z,1.10
2018-06-21T11:26:44.027Z,1.33
2018-06-21T11:29:17.805Z,1.20
2018-06-21T11:31:44.771Z,1.17
2018-06-21T11:34:11.857Z,1.27
2018-06-21T11:36:39.097Z,1.10
2018-06-21T11:39:06.628Z,1.00
2018-06-21T11:41:33.626Z,1.33
2018-06-21T11:44:00.581Z,1.00
2018-06-21T11:46:27.527Z,1.13
2018-06-21T11:48:54.547Z,1.20
2018-06-21T11:51:21.503Z,1.10
2018-06-21T11:53:48.649Z,1.30
2018-06-21T11:56:15.651Z,1.03
2018-06-21T11:58:42.699Z,0.80
2018-06-21T12:01:09.720Z,0.73
2018-06-21T12:03:36.760Z,1.07
2018-06-21T12:06:03.836Z,0.80
2018-06-21T12:08:30.852Z,2.03
2018-06-21T12:10:57.812Z,1.30
2018-06-21T12:13:24.818Z,1.73
2018-06-21T12:15:51.784Z,1.10
2018-06-21T12:18:18.729Z,2.17
2018-06-21T12:20:45.850Z,1.70
2018-06-21T12:23:12.840Z,1.57
2018-06-21T12:25:39.933Z,2.23
2018-06-21T12:28:07.041Z,1.33
2018-06-21T12:30:34.054Z,1.70
2018-06-21T12:33:01.056Z,1.63
2018-06-21T12:35:28.058Z,1.63
2018-06-21T12:37:55.053Z,1.80
2018-06-21T12:40:22.012Z,1.80
2018-06-21T12:42:49.001Z,1.90
2018-06-21T12:45:15.997Z,2.30
2018-06-21T12:47:42.997Z,2.63
2018-06-21T12:50:09.992Z,2.50
2018-06-21T12:52:37.018Z,2.90
2018-06-21T12:55:04.173Z,3.47
2018-06-21T12:57:31.253Z,3.47
2018-06-21T12:59:58.250Z,2.93
2018-06-21T13:02:25.232Z,3.20
2018-06-21T13:04:52.260Z,4.17
2018-06-21T13:07:19.269Z,3.20
2018-06-21T13:09:58.283Z,3.33
2018-06-21T13:12:38.261Z,3.80
2018-06-21T13:15:05.350Z,5.00
2018-06-21T13:17:32.476Z,3.70
2018-06-21T13:20:01.502Z,4.97
2018-06-21T13:22:28.639Z,5.80
2018-06-21T13:24:55.719Z,4.00
2018-06-21T13:27:22.720Z,2.97
2018-06-21T13:29:49.795Z,2.80
2018-06-21T13:32:17.244Z,2.97
2018-06-21T13:34:44.237Z,3.10
2018-06-21T13:37:11.287Z,3.03
2018-06-21T13:39:38.275Z,3.07
2018-06-21T13:42:05.384Z,2.63
2018-06-21T13:44:32.387Z,2.50
2018-06-21T13:47:00.285Z,2.13
2018-06-21T13:49:27.253Z,2.80
2018-06-21T13:51:54.305Z,3.20
2018-06-21T13:54:21.304Z,2.80
2018-06-21T13:56:48.353Z,4.57
2018-06-21T13:59:16.195Z,7.17
2018-06-21T14:01:43.478Z,9.50
2018-06-21T14:04:10.516Z,4.63
2018-06-21T14:06:37.561Z,3.73
2018-06-21T14:09:06.102Z,2.87
2018-06-21T14:11:33.137Z,3.30
2018-06-21T14:14:00.176Z,1.70
2018-06-21T14:16:27.884Z,2.83
2018-06-21T14:18:54.927Z,3.10
2018-06-21T14:21:21.889Z,1.30
2018-06-21T14:23:48.938Z,1.70
2018-06-21T14:26:15.905Z,1.40
2018-06-21T14:28:42.853Z,1.53
2018-06-21T14:31:10.139Z,1.30
2018-06-21T14:33:37.118Z,1.90
2018-06-21T14:36:04.066Z,1.53
2018-06-21T14:38:31.028Z,1.40
2018-06-21T14:40:58.078Z,1.60
2018-06-21T14:43:25.120Z,1.57
2018-06-21T14:45:52.185Z,1.93
2018-06-21T14:48:20.411Z,1.33
2018-06-21T14:50:47.309Z,1.53
2018-06-21T14:53:14.580Z,1.37
2018-06-21T14:55:42.620Z,1.27
2018-06-21T14:58:10.048Z,1.50
2018-06-21T15:00:37.010Z,1.17
2018-06-21T15:03:04.163Z,1.30
2018-06-21T15:05:32.224Z,1.13
2018-06-21T15:07:59.254Z,1.20
2018-06-21T15:10:26.327Z,1.30
2018-06-21T15:12:53.463Z,1.40
2018-06-21T15:15:20.513Z,1.47
2018-06-21T15:17:47.551Z,1.30
2018-06-21T15:20:14.573Z,1.63
2018-06-21T15:22:41.574Z,1.57
2018-06-21T15:25:08.611Z,1.60
2018-06-21T15:27:35.596Z,1.53
2018-06-21T15:30:02.678Z,1.93
2018-06-21T15:32:29.929Z,1.73
2018-06-21T15:34:57.217Z,1.40
2018-06-21T15:37:24.326Z,1.67
2018-06-21T15:39:51.328Z,2.57
2018-06-21T15:42:18.915Z,1.30
2018-06-21T15:44:45.980Z,1.93
2018-06-21T15:47:15.008Z,1.60
2018-06-21T15:49:41.950Z,1.63
2018-06-21T15:52:09.486Z,8.60
2018-06-21T15:54:37.468Z,2.07
2018-06-21T15:57:06.018Z,1.63
2018-06-21T15:59:33.168Z,1.60
2018-06-21T16:02:00.409Z,3.00
2018-06-21T16:04:27.739Z,1.90
2018-06-21T16:06:54.801Z,2.20
2018-06-21T16:09:21.916Z,2.00
2018-06-21T16:11:49.032Z,1.50
2018-06-21T16:14:16.041Z,1.67
2018-06-21T16:16:43.795Z,1.30
2018-06-21T16:19:10.888Z,1.10
2018-06-21T16:21:37.861Z,1.50
2018-06-21T16:24:05.810Z,1.00
2018-06-21T16:26:32.824Z,1.30
2018-06-21T16:29:00.257Z,1.90
2018-06-21T16:31:27.231Z,3.90
2018-06-21T16:33:54.367Z,2.20
2018-06-21T16:36:21.371Z,1.50
2018-06-21T16:38:48.433Z,1.63
2018-06-21T16:41:16.286Z,1.30
2018-06-21T16:43:43.398Z,1.40
2018-06-21T16:46:10.434Z,1.70
2018-06-21T16:48:37.390Z,1.30
2018-06-21T16:51:04.951Z,1.60
2018-06-21T16:53:32.083Z,1.90
2018-06-21T16:55:59.115Z,2.30
2018-06-21T16:58:26.063Z,1.63
2018-06-21T17:00:53.425Z,1.43
2018-06-21T17:03:21.333Z,1.60
2018-06-21T17:05:48.348Z,1.00
2018-06-21T17:08:15.377Z,1.40
2018-06-21T17:10:42.342Z,1.00
2018-06-21T17:13:09.543Z,1.40
2018-06-21T17:15:36.559Z,1.87
2018-06-21T17:18:03.696Z,2.23
2018-06-21T17:20:30.856Z,1.80
2018-06-21T17:22:57.856Z,1.67
2018-06-21T17:25:25.226Z,2.47
2018-06-21T17:27:52.431Z,1.23
2018-06-21T17:30:19.506Z,1.30
2018-06-21T17:32:47.017Z,1.83
2018-06-21T17:35:14.359Z,1.40
2018-06-21T17:37:42.138Z,3.40
2018-06-21T17:40:09.172Z,1.60
2018-06-21T17:42:36.432Z,1.93
2018-06-21T17:45:03.576Z,3.20
2018-06-21T17:47:30.866Z,1.93
2018-06-21T17:49:57.955Z,2.50
2018-06-21T17:52:25.197Z,2.00
2018-06-21T17:54:52.869Z,4.00
2018-06-21T17:57:20.479Z,2.27
2018-06-21T17:59:47.740Z,1.80
2018-06-21T18:02:14.916Z,2.53
2018-06-21T18:04:42.124Z,2.30
2018-06-21T18:07:09.160Z,2.60
2018-06-21T18:09:37.243Z,1.70
2018-06-21T18:12:04.548Z,2.83
2018-06-21T18:14:32.152Z,2.40
2018-06-21T18:16:59.639Z,1.53
2018-06-21T18:19:27.807Z,1.80
2018-06-21T18:21:55.284Z,1.40
2018-06-21T18:24:22.381Z,1.80
2018-06-21T18:26:50.245Z,1.90
2018-06-21T18:29:19.269Z,1.43
2018-06-21T18:31:46.286Z,2.00
2018-06-21T18:34:13.593Z,1.87
2018-06-21T18:36:41.285Z,1.20
2018-06-21T18:39:09.253Z,1.20
2018-06-21T18:41:36.336Z,1.90
2018-06-21T18:44:04.544Z,1.60
2018-06-21T18:46:31.549Z,5.67
2018-06-21T18:48:59.407Z,2.10
2018-06-21T18:51:26.802Z,2.03
2018-06-21T18:53:54.127Z,2.70
2018-06-21T18:56:21.597Z,2.87
2018-06-21T18:58:49.749Z,3.57
2018-06-21T19:01:16.912Z,3.67
2018-06-21T19:03:44.159Z,4.10
2018-06-21T19:06:18.176Z,2.50
2018-06-21T19:08:51.182Z,2.73
2018-06-21T19:11:24.149Z,2.63
2018-06-21T19:13:51.533Z,2.93
2018-06-21T19:16:18.625Z,3.10
2018-06-21T19:18:46.061Z,3.03
2018-06-21T19:21:13.338Z,1.73
2018-06-21T19:23:40.831Z,2.90
2018-06-21T19:26:08.131Z,1.70
2018-06-21T19:28:35.312Z,1.20
2018-06-21T19:31:02.921Z,1.63
2018-06-21T19:33:29.881Z,1.77
2018-06-21T19:35:57.286Z,1.10
2018-06-21T19:38:24.295Z,1.63
2018-06-21T19:40:51.501Z,1.23
2018-06-21T19:43:18.515Z,1.67
2018-06-21T19:45:45.464Z,1.20
2018-06-21T19:48:12.915Z,1.00
2018-06-21T19:50:40.197Z,1.13
2018-06-21T19:53:07.795Z,1.83
2018-06-21T19:55:34.891Z,5.50
2018-06-21T19:58:01.990Z,1.80
2018-06-21T20:00:29.066Z,1.77
2018-06-21T20:02:58.896Z,2.80
2018-06-21T20:05:26.128Z,1.70
2018-06-21T20:07:53.291Z,2.00
2018-06-21T20:10:20.342Z,1.80
2018-06-21T20:12:47.671Z,2.53
2018-06-21T20:15:14.716Z,1.67
2018-06-21T20:17:41.840Z,2.67
2018-06-21T20:20:14.724Z,1.90
2018-06-21T20:22:41.834Z,1.50
2018-06-21T20:25:08.934Z,2.33
2018-06-21T20:27:35.979Z,3.00
2018-06-21T20:30:03.358Z,2.23
2018-06-21T20:32:30.635Z,3.37
2018-06-21T20:34:57.848Z,2.03
2018-06-21T20:37:24.884Z,1.90
2018-06-21T20:39:52.111Z,2.00
2018-06-21T20:42:19.093Z,1.83
2018-06-21T20:44:46.085Z,1.47
2018-06-21T20:47:13.284Z,1.40
2018-06-21T20:49:40.243Z,1.33
2018-06-21T20:52:11.844Z,1.20
2018-06-21T20:54:38.824Z,1.10
2018-06-21T20:57:05.985Z,1.43
2018-06-21T20:59:33.061Z,1.50
2018-06-21T21:02:00.180Z,1.67
2018-06-21T21:04:33.925Z,1.30
2018-06-21T21:07:01.494Z,1.70
2018-06-21T21:09:28.712Z,1.97
2018-06-21T21:11:55.811Z,4.30
2018-06-21T21:14:22.888Z,1.80
2018-06-21T21:16:50.342Z,1.40
2018-06-21T21:19:17.505Z,1.73
2018-06-21T21:21:44.575Z,2.27
2018-06-21T21:24:11.623Z,1.77
2018-06-21T21:26:38.692Z,2.20
2018-06-21T21:29:05.970Z,1.90
2018-06-21T21:31:33.105Z,1.83
2018-06-21T21:34:00.367Z,1.60
2018-06-21T21:36:27.537Z,1.43
2018-06-21T21:38:54.901Z,1.30
2018-06-21T21:41:21.953Z,1.57
2018-06-21T21:43:49.098Z,1.63
2018-06-21T21:46:16.119Z,2.00
2018-06-21T21:48:43.175Z,2.50
2018-06-21T21:51:10.270Z,1.60
2018-06-21T21:53:37.505Z,1.90
2018-06-21T21:56:04.877Z,2.30
2018-06-21T21:58:31.924Z,1.77
2018-06-21T22:00:59.085Z,1.90
2018-06-21T22:03:26.357Z,1.40
2018-06-21T22:05:53.528Z,1.90
2018-06-21T22:08:20.589Z,2.20
2018-06-21T22:10:48.501Z,1.77
2018-06-21T22:13:16.023Z,1.80
2018-06-21T22:15:43.395Z,1.37
2018-06-21T22:18:10.470Z,1.50
2018-06-21T22:20:37.891Z,1.40
2018-06-21T22:23:04.971Z,1.70
2018-06-21T22:25:32.020Z,1.47
2018-06-21T22:27:59.458Z,1.80
2018-06-21T22:30:26.890Z,1.60
2018-06-21T22:32:54.243Z,1.20
2018-06-21T22:35:21.314Z,1.30
2018-06-21T22:37:48.464Z,1.50
2018-06-21T22:40:15.523Z,1.47
2018-06-21T22:42:42.959Z,1.10
2018-06-21T22:45:10.179Z,1.20
2018-06-21T22:47:37.361Z,1.37
2018-06-21T22:50:04.523Z,1.80
2018-06-21T22:52:31.551Z,1.20
2018-06-21T22:54:58.859Z,1.97
2018-06-21T22:57:26.022Z,1.00
2018-06-21T22:59:53.067Z,1.10
2018-06-21T23:02:20.148Z,1.10
2018-06-21T23:04:47.471Z,1.10
2018-06-21T23:07:14.653Z,1.10
2018-06-21T23:09:41.813Z,1.30
2018-06-21T23:12:08.867Z,1.20
2018-06-21T23:14:36.016Z,1.50
2018-06-21T23:17:03.013Z,1.60
2018-06-21T23:19:31.440Z,1.27
2018-06-21T23:21:59.364Z,2.23
2018-06-21T23:24:26.780Z,1.70
2018-06-21T23:26:54.301Z,1.53
2018-06-21T23:29:21.633Z,1.50
2018-06-21T23:31:49.241Z,1.60
2018-06-21T23:34:16.727Z,1.33
2018-06-21T23:36:43.789Z,1.33
2018-06-21T23:39:11.739Z,2.23
2018-06-21T23:41:39.403Z,7.10
2018-06-21T23:44:06.501Z,1.40
2018-06-21T23:46:33.553Z,1.27
2018-06-21T23:49:00.598Z,1.40
2018-06-21T23:51:27.639Z,1.67
2018-06-21T23:53:54.699Z,1.53
2018-06-21T23:56:21.753Z,1.80
2018-06-21T23:58:48.929Z,1.80
